sensor_id;sensor_type;location;lat;lon;timestamp;temperature;humidity
5881;DHT22;2966;52.598;10.928;2022-08-11T00:01:43;17.10;99.90
5881;DHT22;2966;52.598;10.928;2022-08-11T00:04:11;17.10;99.90
5881;DHT22;2966;52.598;10.928;2022-08-11T00:06:39;17.00;99.90
5881;DHT22;2966;52.598;10.928;2022-08-11T00:09:08;17.00;99.90
5881;DHT22;2966;52.598;10.928;2022-08-11T00:11:38;17.00;99.90
5881;DHT22;2966;52.598;10.928;2022-08-11T00:14:14;17.00;99.90
5881;DHT22;2966;52.598;10.928;2022-08-11T00:16:43;17.00;99.90
5881;DHT22;2966;52.598;10.928;2022-08-11T00:19:21;17.00;99.90
5881;DHT22;2966;52.598;10.928;2022-08-11T00:21:48;17.00;99.90
5881;DHT22;2966;52.598;10.928;2022-08-11T00:24:15;16.90;99.90
5881;DHT22;2966;52.598;10.928;2022-08-11T00:26:47;16.90;99.90
5881;DHT22;2966;52.598;10.928;2022-08-11T00:29:15;16.80;99.90
5881;DHT22;2966;52.598;10.928;2022-08-11T00:31:44;16.80;99.90
5881;DHT22;2966;52.598;10.928;2022-08-11T00:34:13;16.70;99.90
5881;DHT22;2966;52.598;10.928;2022-08-11T00:36:46;16.70;99.90
5881;DHT22;2966;52.598;10.928;2022-08-11T00:39:18;16.60;99.90
5881;DHT22;2966;52.598;10.928;2022-08-11T00:44:54;16.50;99.90
5881;DHT22;2966;52.598;10.928;2022-08-11T00:47:27;16.40;99.90
5881;DHT22;2966;52.598;10.928;2022-08-11T00:50:03;16.40;99.90
5881;DHT22;2966;52.598;10.928;2022-08-11T00:53:07;16.40;99.90
5881;DHT22;2966;52.598;10.928;2022-08-11T00:56:12;16.30;99.90
5881;DHT22;2966;52.598;10.928;2022-08-11T01:02:11;15.90;99.90
5881;DHT22;2966;52.598;10.928;2022-08-11T01:05:02;15.60;99.90
5881;DHT22;2966;52.598;10.928;2022-08-11T01:11:13;15.20;99.90
5881;DHT22;2966;52.598;10.928;2022-08-11T01:14:11;15.00;99.90
5881;DHT22;2966;52.598;10.928;2022-08-11T01:17:19;14.80;99.90
5881;DHT22;2966;52.598;10.928;2022-08-11T01:20:12;14.70;99.90
5881;DHT22;2966;52.598;10.928;2022-08-11T01:23:03;14.60;99.90
5881;DHT22;2966;52.598;10.928;2022-08-11T01:26:22;14.60;99.90
5881;DHT22;2966;52.598;10.928;2022-08-11T01:35:34;14.30;99.90
5881;DHT22;2966;52.598;10.928;2022-08-11T01:38:40;14.20;99.90
5881;DHT22;2966;52.598;10.928;2022-08-11T01:41:28;14.10;99.90
5881;DHT22;2966;52.598;10.928;2022-08-11T01:44:34;14.10;99.90
5881;DHT22;2966;52.598;10.928;2022-08-11T01:47:16;13.90;99.90
5881;DHT22;2966;52.598;10.928;2022-08-11T01:50:08;13.90;99.90
5881;DHT22;2966;52.598;10.928;2022-08-11T01:52:52;13.70;99.90
5881;DHT22;2966;52.598;10.928;2022-08-11T01:55:33;13.50;99.90
5881;DHT22;2966;52.598;10.928;2022-08-11T01:58:12;13.50;99.90
5881;DHT22;2966;52.598;10.928;2022-08-11T02:00:49;13.40;99.90
5881;DHT22;2966;52.598;10.928;2022-08-11T02:03:23;13.30;99.90
5881;DHT22;2966;52.598;10.928;2022-08-11T02:06:02;13.30;99.90
5881;DHT22;2966;52.598;10.928;2022-08-11T02:08:58;13.40;99.90
5881;DHT22;2966;52.598;10.928;2022-08-11T02:11:29;13.30;99.90
5881;DHT22;2966;52.598;10.928;2022-08-11T02:14:02;13.40;99.90
5881;DHT22;2966;52.598;10.928;2022-08-11T02:19:40;13.30;99.90
5881;DHT22;2966;52.598;10.928;2022-08-11T02:22:31;13.20;99.90
5881;DHT22;2966;52.598;10.928;2022-08-11T02:25:25;13.00;99.90
5881;DHT22;2966;52.598;10.928;2022-08-11T02:28:00;13.00;99.90
5881;DHT22;2966;52.598;10.928;2022-08-11T02:30:32;12.90;99.90
5881;DHT22;2966;52.598;10.928;2022-08-11T02:33:11;12.90;99.90
5881;DHT22;2966;52.598;10.928;2022-08-11T02:35:57;12.90;99.90
5881;DHT22;2966;52.598;10.928;2022-08-11T02:38:28;12.80;99.90
5881;DHT22;2966;52.598;10.928;2022-08-11T02:41:02;12.80;99.90
5881;DHT22;2966;52.598;10.928;2022-08-11T02:44:07;12.80;99.90
5881;DHT22;2966;52.598;10.928;2022-08-11T02:46:47;12.80;99.90
5881;DHT22;2966;52.598;10.928;2022-08-11T02:49:27;12.80;99.90
5881;DHT22;2966;52.598;10.928;2022-08-11T02:52:22;12.70;99.90
5881;DHT22;2966;52.598;10.928;2022-08-11T02:54:57;12.70;99.90
5881;DHT22;2966;52.598;10.928;2022-08-11T02:57:33;12.70;99.90
5881;DHT22;2966;52.598;10.928;2022-08-11T03:00:06;12.60;99.90
5881;DHT22;2966;52.598;10.928;2022-08-11T03:02:50;12.60;99.90
5881;DHT22;2966;52.598;10.928;2022-08-11T03:05:29;12.50;99.90
5881;DHT22;2966;52.598;10.928;2022-08-11T03:08:10;12.60;99.90
5881;DHT22;2966;52.598;10.928;2022-08-11T03:10:46;12.50;99.90
5881;DHT22;2966;52.598;10.928;2022-08-11T03:13:41;12.40;99.90
5881;DHT22;2966;52.598;10.928;2022-08-11T03:16:31;12.40;99.90
5881;DHT22;2966;52.598;10.928;2022-08-11T03:19:20;12.30;99.90
5881;DHT22;2966;52.598;10.928;2022-08-11T03:21:53;12.30;99.90
5881;DHT22;2966;52.598;10.928;2022-08-11T03:24:27;12.30;99.90
5881;DHT22;2966;52.598;10.928;2022-08-11T03:27:03;12.30;99.90
5881;DHT22;2966;52.598;10.928;2022-08-11T03:29:35;12.20;99.90
5881;DHT22;2966;52.598;10.928;2022-08-11T03:32:09;12.10;99.90
5881;DHT22;2966;52.598;10.928;2022-08-11T03:34:39;12.00;99.90
5881;DHT22;2966;52.598;10.928;2022-08-11T03:37:23;12.10;99.90
5881;DHT22;2966;52.598;10.928;2022-08-11T03:40:27;12.00;99.90
5881;DHT22;2966;52.598;10.928;2022-08-11T03:43:23;12.00;99.90
5881;DHT22;2966;52.598;10.928;2022-08-11T03:46:01;12.00;99.90
5881;DHT22;2966;52.598;10.928;2022-08-11T03:48:39;12.00;99.90
5881;DHT22;2966;52.598;10.928;2022-08-11T03:51:14;12.00;99.90
5881;DHT22;2966;52.598;10.928;2022-08-11T03:53:55;12.00;99.90
5881;DHT22;2966;52.598;10.928;2022-08-11T03:57:07;12.00;99.90
5881;DHT22;2966;52.598;10.928;2022-08-11T04:00:03;12.00;99.90
5881;DHT22;2966;52.598;10.928;2022-08-11T04:03:27;11.90;99.90
5881;DHT22;2966;52.598;10.928;2022-08-11T04:06:35;12.00;99.90
5881;DHT22;2966;52.598;10.928;2022-08-11T04:09:44;12.00;99.90
5881;DHT22;2966;52.598;10.928;2022-08-11T04:15:58;12.00;99.90
5881;DHT22;2966;52.598;10.928;2022-08-11T04:19:04;12.00;99.90
5881;DHT22;2966;52.598;10.928;2022-08-11T04:22:05;12.00;99.90
5881;DHT22;2966;52.598;10.928;2022-08-11T04:28:10;12.10;99.90
5881;DHT22;2966;52.598;10.928;2022-08-11T04:30:58;12.20;99.90
5881;DHT22;2966;52.598;10.928;2022-08-11T04:33:52;12.20;99.90
5881;DHT22;2966;52.598;10.928;2022-08-11T04:36:45;12.30;99.90
5881;DHT22;2966;52.598;10.928;2022-08-11T04:39:46;12.30;99.90
5881;DHT22;2966;52.598;10.928;2022-08-11T04:49:09;12.70;99.90
5881;DHT22;2966;52.598;10.928;2022-08-11T04:52:22;12.80;99.90
5881;DHT22;2966;52.598;10.928;2022-08-11T04:56:00;12.90;99.90
5881;DHT22;2966;52.598;10.928;2022-08-11T05:02:28;13.30;99.90
5881;DHT22;2966;52.598;10.928;2022-08-11T05:05:14;13.50;99.90
5881;DHT22;2966;52.598;10.928;2022-08-11T05:08:40;13.70;99.90
5881;DHT22;2966;52.598;10.928;2022-08-11T05:11:49;13.90;99.90
5881;DHT22;2966;52.598;10.928;2022-08-11T05:14:34;14.00;99.90
5881;DHT22;2966;52.598;10.928;2022-08-11T05:17:35;14.30;99.90
5881;DHT22;2966;52.598;10.928;2022-08-11T05:20:21;14.50;99.90
5881;DHT22;2966;52.598;10.928;2022-08-11T05:23:08;14.80;99.90
5881;DHT22;2966;52.598;10.928;2022-08-11T05:25:58;15.10;99.90
5881;DHT22;2966;52.598;10.928;2022-08-11T05:28:52;15.30;99.90
5881;DHT22;2966;52.598;10.928;2022-08-11T05:31:39;15.60;99.90
5881;DHT22;2966;52.598;10.928;2022-08-11T05:34:30;15.80;99.90
5881;DHT22;2966;52.598;10.928;2022-08-11T05:37:22;16.00;99.90
5881;DHT22;2966;52.598;10.928;2022-08-11T05:47:33;16.60;99.90
5881;DHT22;2966;52.598;10.928;2022-08-11T05:50:23;16.70;99.90
5881;DHT22;2966;52.598;10.928;2022-08-11T05:52:57;16.90;99.90
5881;DHT22;2966;52.598;10.928;2022-08-11T05:55:43;17.00;99.90
5881;DHT22;2966;52.598;10.928;2022-08-11T05:58:32;17.20;99.90
5881;DHT22;2966;52.598;10.928;2022-08-11T06:00:59;17.40;99.90
5881;DHT22;2966;52.598;10.928;2022-08-11T06:03:29;17.60;99.90
5881;DHT22;2966;52.598;10.928;2022-08-11T06:06:18;17.70;99.90
5881;DHT22;2966;52.598;10.928;2022-08-11T06:08:48;17.90;99.90
5881;DHT22;2966;52.598;10.928;2022-08-11T06:11:15;18.00;99.90
5881;DHT22;2966;52.598;10.928;2022-08-11T06:13:44;18.10;99.90
5881;DHT22;2966;52.598;10.928;2022-08-11T06:16:21;18.20;99.90
5881;DHT22;2966;52.598;10.928;2022-08-11T06:18:49;18.50;99.90
5881;DHT22;2966;52.598;10.928;2022-08-11T06:21:16;18.70;99.90
5881;DHT22;2966;52.598;10.928;2022-08-11T06:23:44;18.90;99.90
5881;DHT22;2966;52.598;10.928;2022-08-11T06:26:13;19.10;99.90
5881;DHT22;2966;52.598;10.928;2022-08-11T06:28:42;19.20;99.90
5881;DHT22;2966;52.598;10.928;2022-08-11T06:31:11;19.40;99.90
5881;DHT22;2966;52.598;10.928;2022-08-11T06:33:55;19.40;99.90
5881;DHT22;2966;52.598;10.928;2022-08-11T06:36:30;19.60;99.90
5881;DHT22;2966;52.598;10.928;2022-08-11T06:39:07;19.80;99.90
5881;DHT22;2966;52.598;10.928;2022-08-11T06:41:43;19.90;99.90
5881;DHT22;2966;52.598;10.928;2022-08-11T06:44:23;20.10;99.90
5881;DHT22;2966;52.598;10.928;2022-08-11T06:46:54;20.00;99.90
5881;DHT22;2966;52.598;10.928;2022-08-11T06:49:36;20.20;99.90
5881;DHT22;2966;52.598;10.928;2022-08-11T06:52:30;20.40;99.90
5881;DHT22;2966;52.598;10.928;2022-08-11T06:55:04;20.50;99.90
5881;DHT22;2966;52.598;10.928;2022-08-11T06:57:48;20.70;99.90
5881;DHT22;2966;52.598;10.928;2022-08-11T07:02:50;21.00;99.90
5881;DHT22;2966;52.598;10.928;2022-08-11T07:04:12;21.20;99.90
5881;DHT22;2966;52.598;10.928;2022-08-11T07:06:56;21.30;99.90
5881;DHT22;2966;52.598;10.928;2022-08-11T07:10:15;21.30;99.90
5881;DHT22;2966;52.598;10.928;2022-08-11T07:13:11;21.40;99.90
5881;DHT22;2966;52.598;10.928;2022-08-11T07:16:00;21.50;99.90
5881;DHT22;2966;52.598;10.928;2022-08-11T07:18:29;21.50;99.90
5881;DHT22;2966;52.598;10.928;2022-08-11T07:25:00;21.80;99.90
5881;DHT22;2966;52.598;10.928;2022-08-11T07:27:51;22.00;99.90
5881;DHT22;2966;52.598;10.928;2022-08-11T07:30:43;22.10;99.90
5881;DHT22;2966;52.598;10.928;2022-08-11T07:33:43;22.10;99.90
5881;DHT22;2966;52.598;10.928;2022-08-11T07:36:12;22.30;99.90
5881;DHT22;2966;52.598;10.928;2022-08-11T07:38:43;22.50;99.90
5881;DHT22;2966;52.598;10.928;2022-08-11T07:41:15;22.60;99.90
5881;DHT22;2966;52.598;10.928;2022-08-11T07:43:46;22.80;99.90
5881;DHT22;2966;52.598;10.928;2022-08-11T07:46:16;22.90;99.90
5881;DHT22;2966;52.598;10.928;2022-08-11T07:49:26;22.90;99.90
5881;DHT22;2966;52.598;10.928;2022-08-11T07:52:37;23.00;99.90
5881;DHT22;2966;52.598;10.928;2022-08-11T08:09:44;23.70;99.90
5881;DHT22;2966;52.598;10.928;2022-08-11T08:12:03;23.90;99.90
5881;DHT22;2966;52.598;10.928;2022-08-11T08:14:56;23.90;99.90
5881;DHT22;2966;52.598;10.928;2022-08-11T08:17:50;24.00;99.90
5881;DHT22;2966;52.598;10.928;2022-08-11T08:20:29;24.00;99.90
5881;DHT22;2966;52.598;10.928;2022-08-11T08:22:59;24.10;99.90
5881;DHT22;2966;52.598;10.928;2022-08-11T08:25:28;24.10;99.90
5881;DHT22;2966;52.598;10.928;2022-08-11T08:27:57;24.20;99.90
5881;DHT22;2966;52.598;10.928;2022-08-11T08:30:25;24.10;99.90
5881;DHT22;2966;52.598;10.928;2022-08-11T08:33:13;24.20;99.90
5881;DHT22;2966;52.598;10.928;2022-08-11T08:35:41;24.30;99.90
5881;DHT22;2966;52.598;10.928;2022-08-11T08:38:10;24.40;99.90
5881;DHT22;2966;52.598;10.928;2022-08-11T08:40:39;24.50;99.90
5881;DHT22;2966;52.598;10.928;2022-08-11T08:43:09;24.50;99.90
5881;DHT22;2966;52.598;10.928;2022-08-11T08:45:41;24.70;99.90
5881;DHT22;2966;52.598;10.928;2022-08-11T08:48:13;24.70;99.90
5881;DHT22;2966;52.598;10.928;2022-08-11T08:50:46;24.90;99.90
5881;DHT22;2966;52.598;10.928;2022-08-11T08:53:34;25.00;99.90
5881;DHT22;2966;52.598;10.928;2022-08-11T08:56:09;25.10;99.90
5881;DHT22;2966;52.598;10.928;2022-08-11T08:58:38;25.10;99.90
5881;DHT22;2966;52.598;10.928;2022-08-11T09:01:09;25.20;99.90
5881;DHT22;2966;52.598;10.928;2022-08-11T09:03:38;25.30;99.90
5881;DHT22;2966;52.598;10.928;2022-08-11T09:06:06;25.30;99.90
5881;DHT22;2966;52.598;10.928;2022-08-11T09:08:34;25.30;99.90
5881;DHT22;2966;52.598;10.928;2022-08-11T09:11:02;25.60;99.90
5881;DHT22;2966;52.598;10.928;2022-08-11T09:13:47;25.80;99.90
5881;DHT22;2966;52.598;10.928;2022-08-11T09:16:15;25.70;99.90
5881;DHT22;2966;52.598;10.928;2022-08-11T09:18:43;25.70;99.90
5881;DHT22;2966;52.598;10.928;2022-08-11T09:21:15;25.90;99.90
5881;DHT22;2966;52.598;10.928;2022-08-11T09:23:50;26.20;99.90
5881;DHT22;2966;52.598;10.928;2022-08-11T09:26:37;26.40;99.90
5881;DHT22;2966;52.598;10.928;2022-08-11T09:29:32;26.60;99.90
5881;DHT22;2966;52.598;10.928;2022-08-11T09:32:05;26.60;99.90
5881;DHT22;2966;52.598;10.928;2022-08-11T09:34:38;26.50;99.90
5881;DHT22;2966;52.598;10.928;2022-08-11T09:37:08;26.50;99.90
5881;DHT22;2966;52.598;10.928;2022-08-11T09:39:55;26.50;99.90
5881;DHT22;2966;52.598;10.928;2022-08-11T09:42:40;26.80;99.90
5881;DHT22;2966;52.598;10.928;2022-08-11T09:45:25;27.00;99.90
5881;DHT22;2966;52.598;10.928;2022-08-11T09:47:53;27.10;99.90
5881;DHT22;2966;52.598;10.928;2022-08-11T09:50:23;27.30;99.90
5881;DHT22;2966;52.598;10.928;2022-08-11T09:52:52;27.20;99.90
5881;DHT22;2966;52.598;10.928;2022-08-11T09:55:22;27.00;99.50
5881;DHT22;2966;52.598;10.928;2022-08-11T09:57:49;26.90;99.90
5881;DHT22;2966;52.598;10.928;2022-08-11T10:00:35;27.10;99.90
5881;DHT22;2966;52.598;10.928;2022-08-11T10:03:06;27.40;98.60
5881;DHT22;2966;52.598;10.928;2022-08-11T10:05:36;27.50;98.90
5881;DHT22;2966;52.598;10.928;2022-08-11T10:08:26;27.60;97.60
5881;DHT22;2966;52.598;10.928;2022-08-11T10:10:54;27.80;96.50
5881;DHT22;2966;52.598;10.928;2022-08-11T10:13:26;27.90;95.70
5881;DHT22;2966;52.598;10.928;2022-08-11T10:16:03;27.80;94.10
5881;DHT22;2966;52.598;10.928;2022-08-11T10:18:34;28.00;93.70
5881;DHT22;2966;52.598;10.928;2022-08-11T10:21:25;27.90;92.90
5881;DHT22;2966;52.598;10.928;2022-08-11T10:24:07;27.80;94.70
5881;DHT22;2966;52.598;10.928;2022-08-11T10:27:09;28.00;95.00
5881;DHT22;2966;52.598;10.928;2022-08-11T10:29:38;28.30;94.30
5881;DHT22;2966;52.598;10.928;2022-08-11T10:32:37;28.20;94.80
5881;DHT22;2966;52.598;10.928;2022-08-11T10:35:30;28.20;95.00
5881;DHT22;2966;52.598;10.928;2022-08-11T10:37:59;28.30;92.80
5881;DHT22;2966;52.598;10.928;2022-08-11T10:40:29;28.10;92.70
5881;DHT22;2966;52.598;10.928;2022-08-11T10:43:03;27.90;91.60
5881;DHT22;2966;52.598;10.928;2022-08-11T10:45:34;27.80;92.70
5881;DHT22;2966;52.598;10.928;2022-08-11T10:48:25;28.10;91.90
5881;DHT22;2966;52.598;10.928;2022-08-11T10:51:09;28.20;90.60
5881;DHT22;2966;52.598;10.928;2022-08-11T10:54:12;28.20;91.40
5881;DHT22;2966;52.598;10.928;2022-08-11T10:56:57;28.30;95.70
5881;DHT22;2966;52.598;10.928;2022-08-11T10:59:56;28.40;91.00
5881;DHT22;2966;52.598;10.928;2022-08-11T11:02:25;28.60;90.50
5881;DHT22;2966;52.598;10.928;2022-08-11T11:04:59;28.50;90.40
5881;DHT22;2966;52.598;10.928;2022-08-11T11:07:37;28.40;90.50
5881;DHT22;2966;52.598;10.928;2022-08-11T11:10:17;28.50;90.50
5881;DHT22;2966;52.598;10.928;2022-08-11T11:12:52;28.40;92.40
5881;DHT22;2966;52.598;10.928;2022-08-11T11:16:22;28.40;91.40
5881;DHT22;2966;52.598;10.928;2022-08-11T11:19:10;28.20;91.70
5881;DHT22;2966;52.598;10.928;2022-08-11T11:21:47;28.30;88.90
5881;DHT22;2966;52.598;10.928;2022-08-11T11:24:56;28.60;89.00
5881;DHT22;2966;52.598;10.928;2022-08-11T11:27:31;28.80;88.30
5881;DHT22;2966;52.598;10.928;2022-08-11T11:30:03;28.90;88.00
5881;DHT22;2966;52.598;10.928;2022-08-11T11:32:39;29.00;86.30
5881;DHT22;2966;52.598;10.928;2022-08-11T11:35:25;29.00;83.10
5881;DHT22;2966;52.598;10.928;2022-08-11T11:38:05;29.10;86.20
5881;DHT22;2966;52.598;10.928;2022-08-11T11:40:38;29.20;87.60
5881;DHT22;2966;52.598;10.928;2022-08-11T11:43:28;29.30;83.00
5881;DHT22;2966;52.598;10.928;2022-08-11T11:46:07;29.20;85.10
5881;DHT22;2966;52.598;10.928;2022-08-11T11:48:45;29.10;81.90
5881;DHT22;2966;52.598;10.928;2022-08-11T11:51:21;29.10;89.30
5881;DHT22;2966;52.598;10.928;2022-08-11T11:53:50;29.10;88.50
5881;DHT22;2966;52.598;10.928;2022-08-11T11:56:21;29.20;82.00
5881;DHT22;2966;52.598;10.928;2022-08-11T11:58:56;29.20;80.70
5881;DHT22;2966;52.598;10.928;2022-08-11T12:01:41;29.20;83.80
5881;DHT22;2966;52.598;10.928;2022-08-11T12:04:11;28.90;82.70
5881;DHT22;2966;52.598;10.928;2022-08-11T12:06:57;28.90;81.80
5881;DHT22;2966;52.598;10.928;2022-08-11T12:09:45;28.90;86.40
5881;DHT22;2966;52.598;10.928;2022-08-11T12:12:25;29.40;81.80
5881;DHT22;2966;52.598;10.928;2022-08-11T12:15:11;29.60;86.80
5881;DHT22;2966;52.598;10.928;2022-08-11T12:17:39;29.60;80.40
5881;DHT22;2966;52.598;10.928;2022-08-11T12:20:07;29.50;81.00
5881;DHT22;2966;52.598;10.928;2022-08-11T12:22:34;29.70;81.10
5881;DHT22;2966;52.598;10.928;2022-08-11T12:25:19;29.70;75.10
5881;DHT22;2966;52.598;10.928;2022-08-11T12:28:03;29.40;76.70
5881;DHT22;2966;52.598;10.928;2022-08-11T12:30:32;29.40;79.00
5881;DHT22;2966;52.598;10.928;2022-08-11T12:32:59;29.50;75.50
5881;DHT22;2966;52.598;10.928;2022-08-11T12:35:26;29.70;77.20
5881;DHT22;2966;52.598;10.928;2022-08-11T12:37:54;29.80;78.30
5881;DHT22;2966;52.598;10.928;2022-08-11T12:40:25;29.90;77.40
5881;DHT22;2966;52.598;10.928;2022-08-11T12:43:13;29.70;75.30
5881;DHT22;2966;52.598;10.928;2022-08-11T12:46:03;29.90;78.90
5881;DHT22;2966;52.598;10.928;2022-08-11T12:48:35;30.00;78.10
5881;DHT22;2966;52.598;10.928;2022-08-11T12:51:23;30.00;74.70
5881;DHT22;2966;52.598;10.928;2022-08-11T12:54:10;30.10;75.10
5881;DHT22;2966;52.598;10.928;2022-08-11T12:56:43;30.10;75.50
5881;DHT22;2966;52.598;10.928;2022-08-11T12:59:28;30.20;73.00
5881;DHT22;2966;52.598;10.928;2022-08-11T13:02:17;30.20;72.20
5881;DHT22;2966;52.598;10.928;2022-08-11T13:05:04;30.40;73.70
5881;DHT22;2966;52.598;10.928;2022-08-11T13:07:32;30.10;72.40
5881;DHT22;2966;52.598;10.928;2022-08-11T13:10:00;30.20;71.70
5881;DHT22;2966;52.598;10.928;2022-08-11T13:12:29;30.10;74.60
5881;DHT22;2966;52.598;10.928;2022-08-11T13:15:20;30.20;71.80
5881;DHT22;2966;52.598;10.928;2022-08-11T13:17:50;30.40;68.50
5881;DHT22;2966;52.598;10.928;2022-08-11T13:20:20;30.20;67.90
5881;DHT22;2966;52.598;10.928;2022-08-11T13:22:51;30.50;67.40
5881;DHT22;2966;52.598;10.928;2022-08-11T13:25:21;30.30;67.10
5881;DHT22;2966;52.598;10.928;2022-08-11T13:27:50;30.30;67.00
5881;DHT22;2966;52.598;10.928;2022-08-11T13:30:18;30.40;67.40
5881;DHT22;2966;52.598;10.928;2022-08-11T13:33:05;29.90;64.50
5881;DHT22;2966;52.598;10.928;2022-08-11T13:35:32;30.00;65.50
5881;DHT22;2966;52.598;10.928;2022-08-11T13:38:01;30.10;71.20
5881;DHT22;2966;52.598;10.928;2022-08-11T13:40:33;30.20;68.70
5881;DHT22;2966;52.598;10.928;2022-08-11T13:43:02;30.50;70.00
5881;DHT22;2966;52.598;10.928;2022-08-11T13:45:29;30.50;64.40
5881;DHT22;2966;52.598;10.928;2022-08-11T13:47:59;30.50;65.30
5881;DHT22;2966;52.598;10.928;2022-08-11T13:50:31;30.20;61.90
5881;DHT22;2966;52.598;10.928;2022-08-11T13:53:21;30.00;66.30
5881;DHT22;2966;52.598;10.928;2022-08-11T13:55:49;30.20;64.40
5881;DHT22;2966;52.598;10.928;2022-08-11T13:58:20;30.40;64.90
5881;DHT22;2966;52.598;10.928;2022-08-11T14:00:56;30.50;65.00
5881;DHT22;2966;52.598;10.928;2022-08-11T14:03:25;30.40;65.80
5881;DHT22;2966;52.598;10.928;2022-08-11T14:05:57;30.50;64.00
5881;DHT22;2966;52.598;10.928;2022-08-11T14:08:27;30.60;60.80
5881;DHT22;2966;52.598;10.928;2022-08-11T14:11:01;30.70;63.70
5881;DHT22;2966;52.598;10.928;2022-08-11T14:13:48;30.30;60.80
5881;DHT22;2966;52.598;10.928;2022-08-11T14:16:18;30.60;63.50
5881;DHT22;2966;52.598;10.928;2022-08-11T14:18:52;30.60;64.30
5881;DHT22;2966;52.598;10.928;2022-08-11T14:21:23;30.70;64.20
5881;DHT22;2966;52.598;10.928;2022-08-11T14:24:10;30.60;64.20
5881;DHT22;2966;52.598;10.928;2022-08-11T14:26:37;31.00;65.20
5881;DHT22;2966;52.598;10.928;2022-08-11T14:29:11;31.30;63.60
5881;DHT22;2966;52.598;10.928;2022-08-11T14:31:42;31.80;62.50
5881;DHT22;2966;52.598;10.928;2022-08-11T14:34:10;31.50;62.70
5881;DHT22;2966;52.598;10.928;2022-08-11T14:36:43;31.80;60.90
5881;DHT22;2966;52.598;10.928;2022-08-11T14:39:14;32.30;60.00
5881;DHT22;2966;52.598;10.928;2022-08-11T14:41:45;32.60;58.00
5881;DHT22;2966;52.598;10.928;2022-08-11T14:44:37;33.00;57.00
5881;DHT22;2966;52.598;10.928;2022-08-11T14:47:23;33.30;55.70
5881;DHT22;2966;52.598;10.928;2022-08-11T14:49:54;33.50;54.10
5881;DHT22;2966;52.598;10.928;2022-08-11T14:52:24;33.80;54.00
5881;DHT22;2966;52.598;10.928;2022-08-11T14:54:52;34.30;52.80
5881;DHT22;2966;52.598;10.928;2022-08-11T14:57:39;34.60;52.10
5881;DHT22;2966;52.598;10.928;2022-08-11T15:00:12;34.50;52.20
5881;DHT22;2966;52.598;10.928;2022-08-11T15:02:43;34.70;52.10
5881;DHT22;2966;52.598;10.928;2022-08-11T15:05:28;34.80;51.10
5881;DHT22;2966;52.598;10.928;2022-08-11T15:07:58;35.10;51.90
5881;DHT22;2966;52.598;10.928;2022-08-11T15:10:28;35.40;51.10
5881;DHT22;2966;52.598;10.928;2022-08-11T15:12:58;35.40;49.40
5881;DHT22;2966;52.598;10.928;2022-08-11T15:15:26;35.40;48.50
5881;DHT22;2966;52.598;10.928;2022-08-11T15:18:12;35.50;49.20
5881;DHT22;2966;52.598;10.928;2022-08-11T15:20:41;35.70;47.90
5881;DHT22;2966;52.598;10.928;2022-08-11T15:23:27;35.40;47.40
5881;DHT22;2966;52.598;10.928;2022-08-11T15:26:15;34.40;47.80
5881;DHT22;2966;52.598;10.928;2022-08-11T15:28:46;34.30;50.10
5881;DHT22;2966;52.598;10.928;2022-08-11T15:31:31;34.10;49.40
5881;DHT22;2966;52.598;10.928;2022-08-11T15:34:19;33.90;49.00
5881;DHT22;2966;52.598;10.928;2022-08-11T15:37:07;33.40;52.30
5881;DHT22;2966;52.598;10.928;2022-08-11T15:40:02;32.80;50.30
5881;DHT22;2966;52.598;10.928;2022-08-11T15:42:59;32.10;50.80
5881;DHT22;2966;52.598;10.928;2022-08-11T15:45:45;31.70;52.70
5881;DHT22;2966;52.598;10.928;2022-08-11T15:48:22;31.40;52.20
5881;DHT22;2966;52.598;10.928;2022-08-11T15:50:56;31.20;52.80
5881;DHT22;2966;52.598;10.928;2022-08-11T15:53:44;30.90;53.60
5881;DHT22;2966;52.598;10.928;2022-08-11T15:56:43;30.50;54.00
5881;DHT22;2966;52.598;10.928;2022-08-11T15:59:12;30.20;53.90
5881;DHT22;2966;52.598;10.928;2022-08-11T16:01:58;29.90;54.50
5881;DHT22;2966;52.598;10.928;2022-08-11T16:04:54;29.60;54.70
5881;DHT22;2966;52.598;10.928;2022-08-11T16:07:29;29.50;54.50
5881;DHT22;2966;52.598;10.928;2022-08-11T16:10:05;29.30;55.30
5881;DHT22;2966;52.598;10.928;2022-08-11T16:12:39;29.20;55.80
5881;DHT22;2966;52.598;10.928;2022-08-11T16:15:34;29.10;56.50
5881;DHT22;2966;52.598;10.928;2022-08-11T16:18:22;29.10;56.00
5881;DHT22;2966;52.598;10.928;2022-08-11T16:21:09;29.00;55.80
5881;DHT22;2966;52.598;10.928;2022-08-11T16:23:40;29.00;56.40
5881;DHT22;2966;52.598;10.928;2022-08-11T16:26:13;29.00;56.10
5881;DHT22;2966;52.598;10.928;2022-08-11T16:28:45;28.90;57.20
5881;DHT22;2966;52.598;10.928;2022-08-11T16:31:14;28.80;57.50
5881;DHT22;2966;52.598;10.928;2022-08-11T16:33:49;28.80;57.30
5881;DHT22;2966;52.598;10.928;2022-08-11T16:36:18;28.70;57.50
5881;DHT22;2966;52.598;10.928;2022-08-11T16:39:04;28.60;57.50
5881;DHT22;2966;52.598;10.928;2022-08-11T16:41:35;28.50;58.60
5881;DHT22;2966;52.598;10.928;2022-08-11T16:44:24;28.30;58.50
5881;DHT22;2966;52.598;10.928;2022-08-11T16:47:12;28.40;59.20
5881;DHT22;2966;52.598;10.928;2022-08-11T16:49:43;28.30;59.40
5881;DHT22;2966;52.598;10.928;2022-08-11T16:52:25;28.30;59.20
5881;DHT22;2966;52.598;10.928;2022-08-11T16:55:03;28.20;60.10
5881;DHT22;2966;52.598;10.928;2022-08-11T16:57:36;28.10;60.30
5881;DHT22;2966;52.598;10.928;2022-08-11T17:00:24;28.10;59.40
5881;DHT22;2966;52.598;10.928;2022-08-11T17:02:54;28.00;60.20
5881;DHT22;2966;52.598;10.928;2022-08-11T17:05:49;27.90;59.40
5881;DHT22;2966;52.598;10.928;2022-08-11T17:08:37;27.80;60.50
5881;DHT22;2966;52.598;10.928;2022-08-11T17:11:22;27.70;60.10
5881;DHT22;2966;52.598;10.928;2022-08-11T17:14:11;27.70;60.20
5881;DHT22;2966;52.598;10.928;2022-08-11T17:16:40;27.70;60.90
5881;DHT22;2966;52.598;10.928;2022-08-11T17:19:10;27.60;61.60
5881;DHT22;2966;52.598;10.928;2022-08-11T17:21:50;27.50;61.90
5881;DHT22;2966;52.598;10.928;2022-08-11T17:24:38;27.50;62.30
5881;DHT22;2966;52.598;10.928;2022-08-11T17:27:07;27.50;62.50
5881;DHT22;2966;52.598;10.928;2022-08-11T17:29:37;27.50;62.80
5881;DHT22;2966;52.598;10.928;2022-08-11T17:32:08;27.50;63.20
5881;DHT22;2966;52.598;10.928;2022-08-11T17:34:57;27.50;63.40
5881;DHT22;2966;52.598;10.928;2022-08-11T17:37:43;27.50;62.80
5881;DHT22;2966;52.598;10.928;2022-08-11T17:40:12;27.60;63.20
5881;DHT22;2966;52.598;10.928;2022-08-11T17:42:42;27.70;62.50
5881;DHT22;2966;52.598;10.928;2022-08-11T17:45:28;27.90;62.60
5881;DHT22;2966;52.598;10.928;2022-08-11T17:48:22;27.90;61.90
5881;DHT22;2966;52.598;10.928;2022-08-11T17:50:56;27.70;60.80
5881;DHT22;2966;52.598;10.928;2022-08-11T17:53:25;27.60;62.70
5881;DHT22;2966;52.598;10.928;2022-08-11T17:56:13;27.50;62.00
5881;DHT22;2966;52.598;10.928;2022-08-11T17:59:01;27.50;62.40
5881;DHT22;2966;52.598;10.928;2022-08-11T18:01:49;27.40;64.10
5881;DHT22;2966;52.598;10.928;2022-08-11T18:04:21;27.30;64.70
5881;DHT22;2966;52.598;10.928;2022-08-11T18:06:54;27.40;64.70
5881;DHT22;2966;52.598;10.928;2022-08-11T18:09:27;27.60;64.70
5881;DHT22;2966;52.598;10.928;2022-08-11T18:12:11;27.70;64.70